Time;durP1;ratioP1;P1;durP2;ratioP2;P2;SDS_P1;SDS_P2;PMS_P1;PMS_P2;Temp;Humidity;BMP_temperature;BMP_pressure;BME280_temperature;BME280_humidity;BME280_pressure;Samples;Min_cycle;Max_cycle;Signal;HPM_P1;HPM_P2
2021/06/21 00:01:22;;;;;;;8.88;6.03;;;;;;;;;;4937692;29;20078;-82
2021/06/21 00:03:49;;;;;;;8.07;5.53;;;;;;;;;;4936615;29;20028;-86
2021/06/21 00:06:15;;;;;;;8.70;5.90;;;;;;;;;;4936758;29;20074;-81
2021/06/21 00:08:42;;;;;;;9.82;5.90;;;;;;;;;;4935268;29;20105;-85
2021/06/21 00:11:08;;;;;;;9.00;5.25;;;;;;;;;;4935158;29;20031;-83
2021/06/21 00:13:34;;;;;;;10.40;6.43;;;;;;;;;;4935089;29;20039;-85
2021/06/21 00:16:01;;;;;;;11.45;6.63;;;;;;;;;;4936371;29;20074;-86
2021/06/21 00:18:27;;;;;;;11.77;6.15;;;;;;;;;;4936933;29;20114;-86
2021/06/21 00:20:53;;;;;;;8.90;6.45;;;;;;;;;;4936336;29;20024;-85
2021/06/21 00:23:21;;;;;;;14.88;6.53;;;;;;;;;;4936368;29;20032;-86
2021/06/21 00:25:48;;;;;;;12.48;6.90;;;;;;;;;;4935003;29;20433;-86
2021/06/21 00:28:15;;;;;;;13.30;6.78;;;;;;;;;;4936318;29;20042;-83
2021/06/21 00:30:41;;;;;;;11.25;6.50;;;;;;;;;;4936873;29;20036;-86
2021/06/21 00:33:08;;;;;;;11.05;6.50;;;;;;;;;;4936241;29;20051;-81
2021/06/21 00:35:34;;;;;;;11.88;6.50;;;;;;;;;;4934911;29;20492;-86
2021/06/21 00:38:01;;;;;;;12.82;7.20;;;;;;;;;;4936040;29;20039;-86
2021/06/21 00:40:27;;;;;;;10.68;7.00;;;;;;;;;;4936588;29;20454;-82
2021/06/21 00:42:54;;;;;;;10.20;6.53;;;;;;;;;;4936188;29;20039;-85
2021/06/21 00:45:21;;;;;;;8.73;6.32;;;;;;;;;;4935994;29;20024;-86
2021/06/21 00:47:48;;;;;;;11.88;6.40;;;;;;;;;;4936041;29;20027;-86
2021/06/21 00:50:15;;;;;;;10.13;6.00;;;;;;;;;;4934869;29;20035;-86
2021/06/21 00:52:42;;;;;;;10.07;6.50;;;;;;;;;;4936019;29;20047;-85
2021/06/21 00:55:09;;;;;;;11.55;6.05;;;;;;;;;;4934910;29;20040;-86
2021/06/21 00:57:36;;;;;;;9.00;6.60;;;;;;;;;;4936045;29;20028;-85
2021/06/21 01:00:08;;;;;;;14.23;6.53;;;;;;;;;;4936640;29;20114;-83
2021/06/21 01:02:34;;;;;;;10.88;6.57;;;;;;;;;;4937206;29;20084;-86
2021/06/21 01:05:01;;;;;;;10.13;6.40;;;;;;;;;;4939795;29;20031;-85
2021/06/21 01:07:27;;;;;;;10.00;5.80;;;;;;;;;;4940132;29;20050;-85
2021/06/21 01:09:55;;;;;;;14.27;6.43;;;;;;;;;;4939618;29;20039;-85
2021/06/21 01:12:41;;;;;;;12.43;6.20;;;;;;;;;;4938268;29;20047;-85
2021/06/21 01:15:11;;;;;;;10.02;6.07;;;;;;;;;;4938232;29;20027;-85
2021/06/21 01:17:55;;;;;;;12.73;6.90;;;;;;;;;;4938524;29;20040;-85
2021/06/21 01:20:40;;;;;;;10.57;6.38;;;;;;;;;;4938647;29;20024;-85
2021/06/21 01:23:09;;;;;;;11.70;6.63;;;;;;;;;;4940101;29;20031;-85
2021/06/21 01:25:36;;;;;;;14.25;6.68;;;;;;;;;;4938410;29;20118;-86
2021/06/21 01:28:07;;;;;;;10.85;6.60;;;;;;;;;;4940004;29;20067;-85
2021/06/21 01:30:52;;;;;;;9.07;6.00;;;;;;;;;;4939517;29;20028;-86
2021/06/21 01:33:19;;;;;;;10.55;6.45;;;;;;;;;;4938070;29;20539;-85
2021/06/21 01:35:52;;;;;;;11.05;6.53;;;;;;;;;;4938487;29;20031;-86
2021/06/21 01:38:23;;;;;;;13.07;6.80;;;;;;;;;;4938232;29;20130;-86
2021/06/21 01:40:54;;;;;;;14.18;6.57;;;;;;;;;;4939465;29;20023;-86
2021/06/21 01:43:23;;;;;;;9.93;6.65;;;;;;;;;;4938118;29;20027;-86
2021/06/21 01:45:50;;;;;;;13.23;7.53;;;;;;;;;;4937879;29;20032;-83
2021/06/21 01:48:17;;;;;;;13.95;6.90;;;;;;;;;;4939102;29;20107;-83
2021/06/21 01:50:43;;;;;;;13.55;7.18;;;;;;;;;;4938022;29;20040;-85
2021/06/21 01:53:19;;;;;;;15.23;7.20;;;;;;;;;;4939585;29;20032;-86
2021/06/21 01:55:49;;;;;;;10.30;6.75;;;;;;;;;;4937944;29;20035;-85
2021/06/21 01:58:17;;;;;;;8.80;5.90;;;;;;;;;;4939220;29;20023;-85
2021/06/21 02:00:43;;;;;;;12.63;7.35;;;;;;;;;;4937947;29;20032;-85
2021/06/21 02:03:10;;;;;;;12.35;7.32;;;;;;;;;;4939203;29;20027;-86
2021/06/21 02:05:37;;;;;;;12.00;6.82;;;;;;;;;;4938936;29;20102;-87
2021/06/21 02:08:04;;;;;;;11.57;6.60;;;;;;;;;;4937677;29;20031;-87
2021/06/21 02:10:33;;;;;;;8.50;6.47;;;;;;;;;;4937627;29;20102;-86
2021/06/21 02:13:00;;;;;;;11.07;6.75;;;;;;;;;;4937312;29;20449;-85
2021/06/21 02:15:28;;;;;;;12.52;7.05;;;;;;;;;;4938716;29;20024;-85
2021/06/21 02:17:54;;;;;;;10.65;7.07;;;;;;;;;;4939142;29;20042;-86
2021/06/21 02:20:23;;;;;;;10.23;6.45;;;;;;;;;;4938838;29;20028;-83
2021/06/21 02:22:49;;;;;;;9.18;6.53;;;;;;;;;;4938712;29;20114;-86
2021/06/21 02:25:15;;;;;;;10.50;6.60;;;;;;;;;;4938818;29;20028;-82
2021/06/21 02:27:42;;;;;;;10.38;5.97;;;;;;;;;;4938672;29;20035;-82
2021/06/21 02:30:11;;;;;;;13.02;6.22;;;;;;;;;;4937415;29;20027;-86
2021/06/21 02:32:38;;;;;;;9.57;5.78;;;;;;;;;;4937153;29;20405;-86
2021/06/21 02:35:06;;;;;;;13.07;6.38;;;;;;;;;;4938523;29;20058;-83
2021/06/21 02:37:32;;;;;;;9.85;6.25;;;;;;;;;;4940242;29;20036;-85
2021/06/21 02:39:58;;;;;;;8.90;6.03;;;;;;;;;;4939176;29;20054;-86
2021/06/21 02:42:25;;;;;;;12.20;6.97;;;;;;;;;;4938900;29;20035;-85
2021/06/21 02:44:51;;;;;;;11.32;6.18;;;;;;;;;;4938351;29;20038;-86
2021/06/21 02:47:19;;;;;;;11.57;6.30;;;;;;;;;;4936765;29;20031;-86
2021/06/21 02:49:46;;;;;;;10.27;6.22;;;;;;;;;;4936821;29;20039;-85
2021/06/21 02:52:19;;;;;;;10.90;6.22;;;;;;;;;;4938043;29;20115;-86
2021/06/21 02:54:46;;;;;;;;;;;;;;;;;;4937430;29;20087;-86
2021/06/21 02:57:32;;;;;;;9.25;6.38;;;;;;;;;;4938526;29;19989;-85
2021/06/21 02:59:58;;;;;;;12.93;6.53;;;;;;;;;;4936447;29;20500;-83
2021/06/21 03:02:25;;;;;;;8.38;6.13;;;;;;;;;;4936641;29;20042;-85
2021/06/21 03:04:52;;;;;;;10.63;6.40;;;;;;;;;;4937715;29;20489;-82
2021/06/21 03:07:22;;;;;;;10.27;6.53;;;;;;;;;;4936549;29;20478;-83
2021/06/21 03:09:48;;;;;;;10.63;6.90;;;;;;;;;;4937663;29;20031;-86
2021/06/21 03:12:26;;;;;;;9.50;6.22;;;;;;;;;;4937926;29;20032;-86
2021/06/21 03:14:52;;;;;;;9.95;6.32;;;;;;;;;;4938122;29;20430;-86
2021/06/21 03:17:20;;;;;;;9.68;6.35;;;;;;;;;;4937562;29;20107;-86
2021/06/21 03:19:46;;;;;;;9.10;5.95;;;;;;;;;;4936063;29;20031;-86
2021/06/21 03:22:13;;;;;;;10.82;6.40;;;;;;;;;;4937392;29;20040;-83
2021/06/21 03:24:39;;;;;;;10.82;6.15;;;;;;;;;;4935489;29;20028;-86
2021/06/21 03:27:07;;;;;;;9.05;5.70;;;;;;;;;;4935989;29;20083;-81
2021/06/21 03:29:35;;;;;;;14.05;5.95;;;;;;;;;;4935889;29;20038;-86
2021/06/21 03:32:11;;;;;;;8.05;5.68;;;;;;;;;;4936119;29;20028;-83
2021/06/21 03:34:38;;;;;;;8.90;6.07;;;;;;;;;;4936021;29;20397;-86
2021/06/21 03:37:04;;;;;;;8.43;5.75;;;;;;;;;;4937084;29;20024;-85
2021/06/21 03:39:31;;;;;;;11.18;6.13;;;;;;;;;;4936794;29;20051;-86
2021/06/21 03:41:57;;;;;;;11.80;5.95;;;;;;;;;;4937136;29;20106;-86
2021/06/21 03:44:23;;;;;;;8.48;5.90;;;;;;;;;;4937658;29;20031;-85
2021/06/21 03:46:50;;;;;;;9.60;6.28;;;;;;;;;;4936864;29;20083;-86
2021/06/21 03:49:17;;;;;;;10.13;6.22;;;;;;;;;;4936925;29;20094;-85
2021/06/21 03:51:43;;;;;;;9.57;6.20;;;;;;;;;;4935615;29;20051;-85
2021/06/21 03:54:10;;;;;;;8.43;5.70;;;;;;;;;;4937217;29;20531;-83
2021/06/21 03:56:36;;;;;;;8.35;5.70;;;;;;;;;;4935706;29;20055;-81
2021/06/21 03:59:02;;;;;;;10.25;5.60;;;;;;;;;;4935437;29;20079;-82
2021/06/21 04:01:28;;;;;;;8.90;5.47;;;;;;;;;;4938516;29;20023;-82
2021/06/21 04:03:58;;;;;;;7.50;5.20;;;;;;;;;;4938956;29;20485;-81
2021/06/21 04:06:24;;;;;;;9.82;5.35;;;;;;;;;;4938526;29;20123;-81
2021/06/21 04:08:51;;;;;;;7.20;4.75;;;;;;;;;;4938368;29;20019;-81
2021/06/21 04:11:17;;;;;;;7.50;5.18;;;;;;;;;;4939509;29;20027;-82
2021/06/21 04:13:43;;;;;;;8.75;5.03;;;;;;;;;;4935390;29;20091;-82
2021/06/21 04:16:09;;;;;;;8.60;4.60;;;;;;;;;;4935211;29;20035;-81
2021/06/21 04:18:35;;;;;;;9.63;4.05;;;;;;;;;;4935143;29;20028;-81
2021/06/21 04:21:01;;;;;;;6.40;4.28;;;;;;;;;;4935187;29;20393;-82
2021/06/21 04:23:28;;;;;;;9.85;4.40;;;;;;;;;;4935036;29;20028;-85
2021/06/21 04:25:54;;;;;;;12.57;3.75;;;;;;;;;;4936346;29;20035;-82
2021/06/21 04:28:20;;;;;;;7.28;3.78;;;;;;;;;;4934995;29;20034;-84
2021/06/21 04:30:48;;;;;;;7.63;3.80;;;;;;;;;;4936200;29;20027;-83
2021/06/21 04:33:14;;;;;;;6.97;4.28;;;;;;;;;;4935088;29;20044;-86
2021/06/21 04:35:40;;;;;;;8.05;3.67;;;;;;;;;;4935050;29;20083;-82
2021/06/21 04:38:07;;;;;;;8.95;4.00;;;;;;;;;;4938312;29;20051;-82
2021/06/21 04:40:34;;;;;;;6.32;3.67;;;;;;;;;;4938882;29;20028;-83
2021/06/21 04:43:00;;;;;;;5.28;3.97;;;;;;;;;;4940115;29;20430;-81
2021/06/21 04:45:27;;;;;;;5.47;4.10;;;;;;;;;;4938697;29;20024;-82
2021/06/21 04:47:53;;;;;;;6.20;3.63;;;;;;;;;;4940070;29;20163;-81
2021/06/21 04:50:19;;;;;;;7.75;3.63;;;;;;;;;;4939069;29;20030;-81
2021/06/21 04:52:47;;;;;;;7.10;3.83;;;;;;;;;;4938826;29;20131;-84
2021/06/21 04:55:14;;;;;;;7.43;4.10;;;;;;;;;;4939763;29;20035;-81
2021/06/21 04:57:40;;;;;;;6.30;4.13;;;;;;;;;;4939501;29;20119;-83
2021/06/21 05:00:09;;;;;;;6.95;3.83;;;;;;;;;;4939264;29;20035;-84
2021/06/21 05:02:35;;;;;;;5.72;4.05;;;;;;;;;;4939255;29;20047;-86
2021/06/21 05:05:01;;;;;;;5.78;4.20;;;;;;;;;;4940329;29;20024;-82
2021/06/21 05:07:27;;;;;;;6.53;4.50;;;;;;;;;;4939128;29;20115;-80
2021/06/21 05:09:54;;;;;;;5.20;3.92;;;;;;;;;;4938890;29;20091;-81
2021/06/21 05:12:20;;;;;;;5.78;3.88;;;;;;;;;;4939731;29;20075;-80
2021/06/21 05:14:46;;;;;;;7.43;4.03;;;;;;;;;;4938442;29;20028;-79
2021/06/21 05:17:13;;;;;;;6.45;3.50;;;;;;;;;;4938551;29;20416;-78
2021/06/21 05:19:39;;;;;;;9.70;4.15;;;;;;;;;;4934658;29;20116;-80
2021/06/21 05:22:07;;;;;;;6.10;3.50;;;;;;;;;;4936380;29;20038;-81
2021/06/21 05:24:33;;;;;;;7.93;3.75;;;;;;;;;;4939242;29;20123;-80
2021/06/21 05:26:59;;;;;;;4.43;3.30;;;;;;;;;;4939088;29;20028;-80
2021/06/21 05:29:26;;;;;;;6.75;3.78;;;;;;;;;;4939035;29;20111;-79
2021/06/21 05:31:52;;;;;;;8.75;3.83;;;;;;;;;;4939104;29;20032;-79
2021/06/21 05:34:18;;;;;;;5.55;3.75;;;;;;;;;;4938953;29;20075;-79
2021/06/21 05:36:44;;;;;;;7.72;3.60;;;;;;;;;;4938392;29;20044;-80
2021/06/21 05:39:10;;;;;;;6.53;3.60;;;;;;;;;;4939958;29;20485;-80
2021/06/21 05:41:37;;;;;;;6.15;3.53;;;;;;;;;;4940498;29;20394;-80
2021/06/21 05:44:03;;;;;;;5.00;3.47;;;;;;;;;;4940852;29;20086;-80
2021/06/21 05:46:29;;;;;;;5.72;3.33;;;;;;;;;;4940742;29;20097;-81
2021/06/21 05:48:55;;;;;;;8.57;4.00;;;;;;;;;;4940057;29;20027;-80
2021/06/21 05:51:21;;;;;;;5.80;3.50;;;;;;;;;;4958273;29;20452;-80
2021/06/21 05:53:48;;;;;;;5.85;3.85;;;;;;;;;;4957723;29;20075;-81
2021/06/21 05:56:17;;;;;;;5.45;3.65;;;;;;;;;;4940618;29;20029;-81
2021/06/21 05:58:43;;;;;;;6.13;3.47;;;;;;;;;;4940551;29;20396;-79
2021/06/21 06:01:09;;;;;;;9.93;3.63;;;;;;;;;;4957881;29;20046;-79
2021/06/21 06:03:35;;;;;;;4.63;3.08;;;;;;;;;;4940639;29;20023;-80
2021/06/21 06:06:02;;;;;;;5.65;3.40;;;;;;;;;;4957594;29;20038;-81
2021/06/21 06:08:28;;;;;;;5.68;3.47;;;;;;;;;;4957612;29;20117;-82
2021/06/21 06:10:55;;;;;;;4.72;3.60;;;;;;;;;;4940284;29;20535;-80
2021/06/21 06:13:21;;;;;;;6.93;3.85;;;;;;;;;;4940189;29;20039;-79
2021/06/21 06:15:47;;;;;;;5.07;3.42;;;;;;;;;;4940135;29;20057;-79
2021/06/21 06:18:13;;;;;;;5.28;3.85;;;;;;;;;;4957665;29;20445;-80
2021/06/21 06:20:39;;;;;;;7.65;4.18;;;;;;;;;;4940260;29;20472;-80
2021/06/21 06:23:05;;;;;;;6.05;4.18;;;;;;;;;;4957168;29;20023;-80
2021/06/21 06:25:33;;;;;;;10.57;4.45;;;;;;;;;;4940706;29;20027;-79
2021/06/21 06:27:59;;;;;;;7.03;3.85;;;;;;;;;;4940734;29;20117;-79
2021/06/21 06:30:26;;;;;;;6.85;4.00;;;;;;;;;;4957312;29;20102;-80
2021/06/21 06:32:52;;;;;;;6.13;4.10;;;;;;;;;;4939670;29;20062;-79
2021/06/21 06:35:18;;;;;;;11.23;4.45;;;;;;;;;;4939780;29;20031;-79
2021/06/21 06:37:45;;;;;;;11.98;4.70;;;;;;;;;;4939507;29;20489;-80
2021/06/21 06:40:12;;;;;;;9.20;3.83;;;;;;;;;;4940391;29;20026;-80
2021/06/21 06:42:38;;;;;;;6.68;4.70;;;;;;;;;;4957624;29;20031;-80
2021/06/21 06:45:04;;;;;;;6.30;3.97;;;;;;;;;;4939581;29;20385;-80
2021/06/21 06:47:32;;;;;;;5.70;3.80;;;;;;;;;;4957162;29;20389;-79
2021/06/21 06:49:58;;;;;;;11.35;4.57;;;;;;;;;;4957532;29;20563;-79
2021/06/21 06:52:25;;;;;;;9.98;4.47;;;;;;;;;;4939647;29;20035;-79
2021/06/21 06:57:40;;;;;;;13.63;4.53;;;;;;;;;;4956760;29;20023;-79
2021/06/21 07:00:07;;;;;;;5.38;3.63;;;;;;;;;;4939257;29;20047;-79
2021/06/21 07:02:33;;;;;;;9.27;3.47;;;;;;;;;;4939310;29;20081;-80
2021/06/21 07:05:01;;;;;;;11.68;3.60;;;;;;;;;;4939429;29;20055;-79
2021/06/21 07:07:27;;;;;;;7.50;3.65;;;;;;;;;;4939238;29;20035;-81
2021/06/21 07:09:53;;;;;;;6.20;4.13;;;;;;;;;;4939202;29;20122;-81
2021/06/21 07:12:19;;;;;;;8.90;4.03;;;;;;;;;;4939068;29;20047;-80
2021/06/21 07:14:45;;;;;;;5.00;3.03;;;;;;;;;;4939155;29;20027;-81
2021/06/21 07:17:11;;;;;;;6.00;3.85;;;;;;;;;;4938924;29;20074;-81
2021/06/21 07:19:38;;;;;;;4.68;2.97;;;;;;;;;;4938990;29;20428;-81
2021/06/21 07:22:04;;;;;;;4.25;3.00;;;;;;;;;;4938990;29;20027;-83
2021/06/21 07:24:30;;;;;;;6.35;2.58;;;;;;;;;;4938960;29;20075;-82
2021/06/21 07:26:57;;;;;;;6.47;4.70;;;;;;;;;;4938807;29;20062;-83
2021/06/21 07:29:23;;;;;;;12.85;3.10;;;;;;;;;;4956061;29;20496;-80
2021/06/21 07:31:49;;;;;;;5.68;2.83;;;;;;;;;;4956276;29;20034;-81
2021/06/21 07:34:15;;;;;;;5.10;3.03;;;;;;;;;;4938763;29;20031;-80
2021/06/21 07:36:41;;;;;;;7.07;3.60;;;;;;;;;;4956128;29;20027;-81
2021/06/21 07:39:08;;;;;;;5.82;3.20;;;;;;;;;;4955665;29;20070;-81
2021/06/21 07:41:34;;;;;;;6.95;3.00;;;;;;;;;;4938632;29;20034;-80
2021/06/21 07:44:00;;;;;;;7.78;3.20;;;;;;;;;;4938598;29;20027;-82
2021/06/21 07:46:27;;;;;;;8.20;3.25;;;;;;;;;;4938609;29;20027;-81
2021/06/21 07:48:53;;;;;;;7.13;2.75;;;;;;;;;;4955789;29;20366;-81
2021/06/21 07:51:20;;;;;;;5.15;2.85;;;;;;;;;;4955736;29;20086;-82
2021/06/21 07:53:50;;;;;;;4.68;2.58;;;;;;;;;;4938334;29;20035;-80
2021/06/21 07:56:17;;;;;;;7.18;3.20;;;;;;;;;;4938431;29;20436;-80
2021/06/21 07:58:43;;;;;;;4.97;2.33;;;;;;;;;;4938353;29;20027;-79
2021/06/21 08:01:12;;;;;;;7.68;2.78;;;;;;;;;;4938225;29;20089;-81
2021/06/21 08:03:38;;;;;;;3.30;2.53;;;;;;;;;;4938817;29;20500;-81
2021/06/21 08:06:06;;;;;;;5.88;2.80;;;;;;;;;;4938178;29;20035;-79
2021/06/21 08:08:33;;;;;;;4.10;2.72;;;;;;;;;;4938155;29;20122;-80
2021/06/21 08:10:59;;;;;;;5.80;2.50;;;;;;;;;;4955152;28;20491;-80
2021/06/21 08:13:25;;;;;;;3.85;2.60;;;;;;;;;;4938059;29;20039;-81
2021/06/21 08:15:52;;;;;;;3.40;2.60;;;;;;;;;;4955463;29;20031;-81
2021/06/21 08:18:19;;;;;;;5.03;2.83;;;;;;;;;;4937484;29;20031;-81
2021/06/21 08:20:45;;;;;;;4.55;2.80;;;;;;;;;;4955318;29;20031;-80
2021/06/21 08:23:15;;;;;;;6.20;2.40;;;;;;;;;;4937951;29;20040;-82
2021/06/21 08:25:42;;;;;;;8.65;2.63;;;;;;;;;;4938024;29;20357;-80
2021/06/21 08:28:08;;;;;;;4.25;2.58;;;;;;;;;;4938027;29;20034;-80
2021/06/21 08:30:35;;;;;;;6.10;2.65;;;;;;;;;;4937984;29;20027;-81
2021/06/21 08:33:01;;;;;;;5.18;2.55;;;;;;;;;;4937833;29;20043;-79
2021/06/21 08:35:27;;;;;;;7.15;2.42;;;;;;;;;;4938489;29;20538;-79
2021/06/21 08:37:53;;;;;;;5.82;2.65;;;;;;;;;;4934491;29;20572;-80
2021/06/21 08:40:22;;;;;;;3.95;2.58;;;;;;;;;;4936109;29;20489;-79
2021/06/21 08:42:48;;;;;;;6.32;2.70;;;;;;;;;;4935902;29;20381;-80
2021/06/21 08:45:15;;;;;;;7.75;2.47;;;;;;;;;;4934643;29;20059;-79
2021/06/21 08:47:42;;;;;;;3.65;2.40;;;;;;;;;;4934596;29;20038;-80
2021/06/21 08:50:09;;;;;;;5.28;2.72;;;;;;;;;;4934604;29;20027;-80
2021/06/21 08:52:35;;;;;;;23.73;3.10;;;;;;;;;;4934472;29;20396;-81
2021/06/21 08:55:05;;;;;;;3.90;2.40;;;;;;;;;;4934542;29;20096;-79
2021/06/21 08:57:32;;;;;;;3.33;2.13;;;;;;;;;;4934886;29;20024;-79
2021/06/21 08:59:58;;;;;;;7.05;2.30;;;;;;;;;;4936081;29;20393;-81
2021/06/21 09:02:26;;;;;;;6.07;2.40;;;;;;;;;;4935095;29;20028;-83
2021/06/21 09:04:53;;;;;;;4.57;2.33;;;;;;;;;;4934426;29;20062;-81
2021/06/21 09:07:21;;;;;;;5.13;2.00;;;;;;;;;;4935786;29;20060;-80
2021/06/21 09:09:48;;;;;;;4.72;2.67;;;;;;;;;;4934461;29;20374;-79
2021/06/21 09:12:19;;;;;;;4.70;2.20;;;;;;;;;;4934357;29;20091;-80
2021/06/21 09:14:47;;;;;;;5.00;2.15;;;;;;;;;;4934488;29;20028;-80
2021/06/21 09:17:13;;;;;;;11.82;2.65;;;;;;;;;;4934254;29;20043;-79
2021/06/21 09:19:45;;;;;;;5.65;2.33;;;;;;;;;;4934394;29;20028;-81
2021/06/21 09:22:31;;;;;;;3.47;1.90;;;;;;;;;;4935833;29;20028;-79
2021/06/21 09:25:02;;;;;;;7.35;2.30;;;;;;;;;;4937740;29;20032;-81
2021/06/21 09:27:29;;;;;;;3.88;2.05;;;;;;;;;;4937939;29;20024;-79
2021/06/21 09:29:55;;;;;;;8.60;2.88;;;;;;;;;;4938243;29;20058;-81
2021/06/21 09:32:38;;;;;;;5.40;2.15;;;;;;;;;;4938995;29;20024;-80
2021/06/21 09:35:04;;;;;;;3.88;1.60;;;;;;;;;;4937738;29;20035;-80
2021/06/21 09:37:42;;;;;;;7.88;2.15;;;;;;;;;;4939250;29;20106;-82
2021/06/21 09:40:09;;;;;;;2.95;2.05;;;;;;;;;;4940895;29;20047;-82
2021/06/21 09:42:36;;;;;;;7.18;2.15;;;;;;;;;;4940740;29;20035;-80
2021/06/21 09:45:03;;;;;;;3.50;1.90;;;;;;;;;;4940653;29;20038;-81
2021/06/21 09:47:31;;;;;;;3.88;1.90;;;;;;;;;;4940585;29;20039;-81
2021/06/21 09:50:12;;;;;;;5.93;2.67;;;;;;;;;;4940717;29;20031;-79
2021/06/21 09:52:38;;;;;;;;;;;;;;;;;;4940961;29;20027;-80
2021/06/21 09:55:15;;;;;;;5.35;2.30;;;;;;;;;;4940461;29;20078;-79
2021/06/21 09:57:41;;;;;;;3.70;1.70;;;;;;;;;;4940474;29;20031;-82
2021/06/21 10:00:12;;;;;;;4.10;2.17;;;;;;;;;;4940466;29;20027;-80
2021/06/21 10:02:38;;;;;;;3.38;2.00;;;;;;;;;;4940446;29;20034;-78
2021/06/21 10:05:06;;;;;;;3.55;2.13;;;;;;;;;;4957473;29;20052;-81
2021/06/21 10:07:36;;;;;;;2.90;2.00;;;;;;;;;;4940262;29;20138;-80
2021/06/21 10:10:05;;;;;;;3.58;2.08;;;;;;;;;;4940117;29;20477;-81
2021/06/21 10:12:32;;;;;;;3.05;1.52;;;;;;;;;;4940126;29;20093;-79
2021/06/21 10:14:58;;;;;;;2.28;1.80;;;;;;;;;;4939996;29;20469;-79
2021/06/21 10:17:24;;;;;;;6.15;1.98;;;;;;;;;;4940064;29;20031;-82
2021/06/21 10:19:51;;;;;;;2.53;1.88;;;;;;;;;;4957361;29;20027;-79
2021/06/21 10:22:21;;;;;;;7.90;2.90;;;;;;;;;;4940078;29;20024;-78
2021/06/21 10:24:49;;;;;;;3.72;2.00;;;;;;;;;;4940169;29;20090;-81
2021/06/21 10:27:16;;;;;;;7.25;3.42;;;;;;;;;;4957186;29;20027;-88
2021/06/21 10:29:42;;;;;;;3.17;2.10;;;;;;;;;;4940062;29;20019;-78
2021/06/21 10:32:09;;;;;;;5.00;2.30;;;;;;;;;;4957101;29;20027;-79
2021/06/21 10:34:36;;;;;;;2.83;2.03;;;;;;;;;;4939720;29;20114;-79
2021/06/21 10:37:02;;;;;;;8.57;2.58;;;;;;;;;;4956955;29;20035;-79
2021/06/21 10:39:29;;;;;;;5.95;2.70;;;;;;;;;;4956830;29;20053;-78
2021/06/21 10:42:05;;;;;;;4.75;2.45;;;;;;;;;;4939678;29;20395;-80
2021/06/21 10:44:37;;;;;;;8.20;2.10;;;;;;;;;;4956886;29;20023;-78
2021/06/21 10:47:29;;;;;;;4.72;2.55;;;;;;;;;;4956734;29;20224;-79
2021/06/21 10:49:57;;;;;;;5.75;2.42;;;;;;;;;;4935467;29;20043;-79
2021/06/21 10:52:30;;;;;;;4.60;2.50;;;;;;;;;;4939679;29;20035;-78
2021/06/21 10:55:16;;;;;;;6.05;2.88;;;;;;;;;;4939448;29;20502;-79
2021/06/21 10:57:42;;;;;;;3.88;2.47;;;;;;;;;;4939247;29;20392;-79
2021/06/21 11:00:15;;;;;;;4.65;2.67;;;;;;;;;;4939441;29;20059;-79
2021/06/21 11:02:42;;;;;;;4.72;2.75;;;;;;;;;;4939327;29;20023;-81
2021/06/21 11:05:09;;;;;;;7.07;2.90;;;;;;;;;;4939178;29;20090;-78
2021/06/21 11:07:35;;;;;;;7.97;2.72;;;;;;;;;;4939246;29;20110;-80
2021/06/21 11:10:02;;;;;;;9.70;2.67;;;;;;;;;;4939119;29;20572;-78
2021/06/21 11:12:31;;;;;;;4.40;2.45;;;;;;;;;;4939128;29;20397;-78
2021/06/21 11:15:07;;;;;;;4.93;2.60;;;;;;;;;;4938945;29;20492;-80
2021/06/21 11:17:34;;;;;;;8.45;2.38;;;;;;;;;;4938970;29;20122;-78
2021/06/21 11:20:19;;;;;;;6.72;2.67;;;;;;;;;;4938867;29;20118;-78
2021/06/21 11:22:49;;;;;;;4.90;2.70;;;;;;;;;;4956191;29;20110;-79
2021/06/21 11:25:22;;;;;;;12.40;2.85;;;;;;;;;;4938663;29;20015;-80
2021/06/21 11:27:49;;;;;;;6.40;2.90;;;;;;;;;;4938855;29;20066;-79
2021/06/21 11:30:22;;;;;;;5.22;2.55;;;;;;;;;;4938725;29;20024;-81
2021/06/21 11:32:59;;;;;;;4.45;2.78;;;;;;;;;;4938612;29;20421;-81
2021/06/21 11:35:55;;;;;;;5.07;2.55;;;;;;;;;;4938905;29;20383;-79
2021/06/21 11:38:22;;;;;;;6.00;2.63;;;;;;;;;;4936427;29;20467;-80
2021/06/21 11:40:48;;;;;;;5.20;2.78;;;;;;;;;;4955869;29;20465;-80
2021/06/21 11:43:16;;;;;;;9.10;3.17;;;;;;;;;;4938622;29;20499;-80
2021/06/21 11:45:45;;;;;;;5.97;2.75;;;;;;;;;;4955322;28;20024;-81
2021/06/21 11:48:11;;;;;;;5.43;2.65;;;;;;;;;;4938613;29;20039;-80
2021/06/21 11:50:38;;;;;;;7.65;2.83;;;;;;;;;;4938474;29;20366;-80
2021/06/21 11:53:08;;;;;;;4.40;2.80;;;;;;;;;;4938318;29;20511;-79
2021/06/21 11:55:36;;;;;;;8.05;2.72;;;;;;;;;;4955665;29;20386;-80
2021/06/21 11:58:02;;;;;;;6.90;2.60;;;;;;;;;;4955680;29;20043;-79
2021/06/21 12:00:36;;;;;;;4.80;2.85;;;;;;;;;;4937754;29;20031;-80
2021/06/21 12:03:06;;;;;;;7.38;3.38;;;;;;;;;;4955744;29;20412;-80
2021/06/21 12:05:32;;;;;;;4.38;3.13;;;;;;;;;;4938292;29;20097;-78
2021/06/21 12:07:59;;;;;;;7.05;2.75;;;;;;;;;;4938165;29;20034;-84
2021/06/21 12:10:25;;;;;;;4.75;2.90;;;;;;;;;;4938229;29;20059;-81
2021/06/21 12:12:55;;;;;;;4.57;2.88;;;;;;;;;;4937909;29;20511;-79
2021/06/21 12:15:34;;;;;;;8.02;2.75;;;;;;;;;;4938112;29;20535;-82
2021/06/21 12:18:01;;;;;;;5.90;2.97;;;;;;;;;;4919154;29;20032;-80
2021/06/21 12:20:27;;;;;;;19.00;4.03;;;;;;;;;;4918852;29;20026;-79
2021/06/21 12:22:57;;;;;;;6.68;2.85;;;;;;;;;;4918942;29;20123;-80
2021/06/21 12:25:28;;;;;;;5.47;3.25;;;;;;;;;;4918983;29;20429;-80
2021/06/21 12:27:54;;;;;;;8.85;3.10;;;;;;;;;;4918595;29;20043;-81
2021/06/21 12:30:38;;;;;;;6.20;3.05;;;;;;;;;;4918863;29;20031;-80
2021/06/21 12:33:23;;;;;;;4.80;3.45;;;;;;;;;;4918346;29;20036;-83
2021/06/21 12:36:08;;;;;;;4.95;3.38;;;;;;;;;;4936237;29;20034;-81
2021/06/21 12:38:35;;;;;;;5.07;2.95;;;;;;;;;;4915472;29;20099;-82
2021/06/21 12:41:18;;;;;;;6.35;3.03;;;;;;;;;;4915690;29;20028;-80
2021/06/21 12:44:00;;;;;;;6.45;3.30;;;;;;;;;;4916278;29;20036;-80
2021/06/21 12:46:28;;;;;;;6.68;3.40;;;;;;;;;;4918856;29;20473;-80
2021/06/21 12:48:54;;;;;;;9.52;3.53;;;;;;;;;;4916915;29;20036;-80
2021/06/21 12:51:21;;;;;;;5.32;3.00;;;;;;;;;;4915687;29;20028;-81
2021/06/21 12:53:49;;;;;;;8.52;3.65;;;;;;;;;;4915750;29;20127;-80
2021/06/21 12:56:22;;;;;;;6.38;3.53;;;;;;;;;;4917448;29;20485;-80
2021/06/21 12:58:49;;;;;;;8.70;2.85;;;;;;;;;;4919501;29;20032;-79
2021/06/21 13:01:26;;;;;;;5.32;3.35;;;;;;;;;;4921424;29;20092;-80
2021/06/21 13:03:53;;;;;;;8.82;3.10;;;;;;;;;;4920602;29;20025;-79
2021/06/21 13:06:48;;;;;;;9.95;3.72;;;;;;;;;;4934364;29;20043;-81
2021/06/21 13:09:16;;;;;;;7.55;3.70;;;;;;;;;;4903470;29;20493;-80
2021/06/21 13:11:48;;;;;;;7.22;3.40;;;;;;;;;;4920400;29;20021;-81
2021/06/21 13:14:14;;;;;;;11.23;3.42;;;;;;;;;;4919019;29;20047;-79
2021/06/21 13:16:40;;;;;;;11.30;3.50;;;;;;;;;;4919446;29;20032;-80
2021/06/21 13:19:14;;;;;;;8.93;4.07;;;;;;;;;;4919080;29;20028;-83
2021/06/21 13:21:40;;;;;;;8.63;3.72;;;;;;;;;;4920333;29;20107;-80
2021/06/21 13:24:07;;;;;;;9.48;3.90;;;;;;;;;;4918960;29;20024;-80
2021/06/21 13:26:34;;;;;;;6.55;3.67;;;;;;;;;;4918810;29;20290;-80
2021/06/21 13:29:19;;;;;;;4.50;3.22;;;;;;;;;;4920117;29;20027;-80
2021/06/21 13:31:45;;;;;;;8.80;3.55;;;;;;;;;;4918834;29;20086;-80
2021/06/21 13:34:11;;;;;;;14.52;3.92;;;;;;;;;;4918655;29;20100;-81
2021/06/21 13:36:56;;;;;;;14.20;4.20;;;;;;;;;;4918695;29;20060;-80
2021/06/21 13:39:23;;;;;;;7.80;3.58;;;;;;;;;;4918624;29;20116;-78
2021/06/21 13:42:05;;;;;;;5.72;3.75;;;;;;;;;;4927468;29;20473;-80
2021/06/21 13:44:32;;;;;;;6.70;3.40;;;;;;;;;;4938220;29;20492;-78
2021/06/21 13:46:58;;;;;;;9.73;3.40;;;;;;;;;;4939485;29;20473;-80
2021/06/21 13:49:24;;;;;;;9.88;3.88;;;;;;;;;;4938656;29;20135;-80
2021/06/21 13:51:54;;;;;;;6.97;3.30;;;;;;;;;;4939002;29;20055;-80
2021/06/21 13:54:26;;;;;;;5.38;3.20;;;;;;;;;;4937413;29;20040;-79
2021/06/21 13:57:02;;;;;;;10.23;3.53;;;;;;;;;;4937813;29;20381;-80
2021/06/21 13:59:42;;;;;;;6.18;3.50;;;;;;;;;;4937457;29;20064;-82
2021/06/21 14:02:08;;;;;;;13.73;3.70;;;;;;;;;;4938055;29;20027;-81
2021/06/21 14:04:34;;;;;;;6.53;3.58;;;;;;;;;;4937172;29;20031;-81
2021/06/21 14:07:00;;;;;;;8.90;3.85;;;;;;;;;;4937391;29;20051;-80
2021/06/21 14:09:26;;;;;;;7.05;3.58;;;;;;;;;;4934825;29;20028;-82
2021/06/21 14:11:52;;;;;;;6.20;3.35;;;;;;;;;;4935853;29;20035;-81
2021/06/21 14:14:18;;;;;;;7.88;3.88;;;;;;;;;;4936971;29;20067;-81
2021/06/21 14:16:45;;;;;;;9.10;3.97;;;;;;;;;;4936972;29;20429;-81
2021/06/21 14:19:13;;;;;;;6.70;3.03;;;;;;;;;;4936934;29;20470;-80
2021/06/21 14:21:41;;;;;;;5.35;3.65;;;;;;;;;;4938565;29;20027;-79
2021/06/21 14:24:07;;;;;;;8.55;3.95;;;;;;;;;;4936859;29;20473;-81
2021/06/21 14:26:33;;;;;;;7.40;3.67;;;;;;;;;;4937375;29;20191;-81
2021/06/21 14:29:00;;;;;;;6.28;3.40;;;;;;;;;;4937953;29;20440;-80
2021/06/21 14:31:26;;;;;;;5.20;3.50;;;;;;;;;;4936527;29;20078;-79
2021/06/21 14:33:53;;;;;;;7.55;4.03;;;;;;;;;;4934610;29;20040;-79
2021/06/21 14:36:19;;;;;;;7.85;3.97;;;;;;;;;;4930418;29;20056;-80
2021/06/21 14:38:50;;;;;;;10.43;3.90;;;;;;;;;;4936609;29;20195;-81
2021/06/21 14:41:16;;;;;;;10.90;3.92;;;;;;;;;;4936593;29;20063;-79
2021/06/21 14:43:42;;;;;;;6.97;3.67;;;;;;;;;;4935265;29;20066;-81
2021/06/21 14:46:08;;;;;;;10.45;3.92;;;;;;;;;;4935899;29;20031;-81
2021/06/21 14:48:36;;;;;;;7.50;3.83;;;;;;;;;;4936303;29;20035;-81
2021/06/21 14:51:06;;;;;;;11.43;3.70;;;;;;;;;;4937810;29;20418;-81